createdAt,value
2023-12-03T00:00:08.951Z,75.82
2023-12-03T00:03:13.805Z,75.79
2023-12-03T00:06:17.067Z,76.06
2023-12-03T00:09:21.515Z,75.79
2023-12-03T00:12:24.470Z,74.58
2023-12-03T00:15:27.364Z,75.76
2023-12-03T00:18:31.274Z,76.46
2023-12-03T00:21:34.422Z,75.73
2023-12-03T00:24:38.665Z,76.23
2023-12-03T00:27:41.749Z,76.21
2023-12-03T00:30:44.606Z,75.24
2023-12-03T00:33:48.969Z,74.55
2023-12-03T00:36:51.906Z,74.93
2023-12-03T00:39:56.116Z,75.40
2023-12-03T00:42:59.144Z,75.88
2023-12-03T00:46:03.822Z,75.19
2023-12-03T00:49:06.935Z,74.93
2023-12-03T00:52:09.769Z,74.92
2023-12-03T00:55:14.290Z,75.76
2023-12-03T00:58:17.193Z,73.93
2023-12-03T01:01:21.681Z,74.29
2023-12-03T01:04:24.459Z,73.34
2023-12-03T01:07:27.544Z,74.02
2023-12-03T01:10:32.429Z,74.21
2023-12-03T01:13:35.210Z,74.03
2023-12-03T01:16:38.089Z,74.37
2023-12-03T01:19:40.927Z,73.24
2023-12-03T01:22:43.938Z,74.58
2023-12-03T01:25:48.245Z,74.97
2023-12-03T01:28:51.160Z,74.41
2023-12-03T01:31:53.977Z,74.33
2023-12-03T01:34:56.793Z,73.32
2023-12-03T01:37:59.634Z,74.33
2023-12-03T01:41:03.809Z,73.88
2023-12-03T01:44:07.371Z,74.36
2023-12-03T01:47:10.588Z,74.33
2023-12-03T01:50:14.575Z,75.28
2023-12-03T01:53:19.086Z,74.97
2023-12-03T01:56:23.269Z,74.56
2023-12-03T01:59:26.715Z,74.16
2023-12-03T02:02:30.958Z,74.43
2023-12-03T02:05:34.080Z,74.34
2023-12-03T02:08:38.190Z,74.37
2023-12-03T02:11:42.762Z,74.28
2023-12-03T02:14:45.584Z,74.47
2023-12-03T02:17:48.965Z,74.12
2023-12-03T02:20:51.839Z,74.57
2023-12-03T02:23:56.086Z,73.55
2023-12-03T02:26:59.495Z,74.36
2023-12-03T02:30:03.018Z,73.89
2023-12-03T02:33:06.769Z,73.38
2023-12-03T02:36:10.730Z,73.34
2023-12-03T02:39:14.979Z,74.41
2023-12-03T02:42:17.978Z,74.01
2023-12-03T02:45:20.807Z,74.77
2023-12-03T02:48:24.992Z,74.00
2023-12-03T02:51:27.919Z,74.20
2023-12-03T02:54:32.189Z,74.68
2023-12-03T02:57:35.142Z,73.82
2023-12-03T03:00:38.226Z,75.18
2023-12-03T03:03:41.208Z,75.18
2023-12-03T03:06:44.050Z,75.55
2023-12-03T03:09:48.293Z,75.71
2023-12-03T03:12:51.098Z,75.80
2023-12-03T03:15:55.103Z,76.18
2023-12-03T03:18:58.101Z,75.89
2023-12-03T03:22:01.000Z,75.81
2023-12-03T03:25:05.979Z,75.66
2023-12-03T03:28:08.660Z,75.87
2023-12-03T03:31:11.684Z,75.17
2023-12-03T03:34:14.551Z,76.62
2023-12-03T03:37:18.700Z,76.59
2023-12-03T03:40:22.778Z,76.12
2023-12-03T03:43:25.593Z,76.18
2023-12-03T03:46:28.409Z,75.76
2023-12-03T03:49:31.400Z,76.18
2023-12-03T03:52:34.351Z,75.53
2023-12-03T03:55:38.599Z,75.37
2023-12-03T03:58:41.510Z,75.33
2023-12-03T04:01:45.268Z,75.36
2023-12-03T04:04:48.573Z,75.34
2023-12-03T04:07:51.340Z,75.62
2023-12-03T04:10:55.686Z,75.13
2023-12-03T04:13:58.416Z,75.41
2023-12-03T04:17:01.250Z,74.89
2023-12-03T04:20:05.676Z,74.97
2023-12-03T04:23:08.563Z,75.18
2023-12-03T04:26:13.631Z,75.49
2023-12-03T04:29:16.426Z,75.18
2023-12-03T04:32:19.220Z,75.69
2023-12-03T04:35:22.105Z,76.20
2023-12-03T04:38:24.800Z,75.62
2023-12-03T04:41:35.871Z,75.41
2023-12-03T04:44:38.591Z,76.30
2023-12-03T04:47:41.508Z,76.10
2023-12-03T04:50:44.395Z,76.05
2023-12-03T04:53:47.272Z,75.97
2023-12-03T04:56:51.432Z,76.32
2023-12-03T04:59:54.182Z,77.01
2023-12-03T05:02:56.967Z,76.56
2023-12-03T05:05:59.747Z,76.57
2023-12-03T05:09:02.647Z,76.86
2023-12-03T05:12:07.146Z,76.27
2023-12-03T05:15:11.855Z,75.20
2023-12-03T05:18:15.769Z,75.88
2023-12-03T05:21:18.630Z,76.04
2023-12-03T05:24:21.421Z,75.94
2023-12-03T05:27:25.732Z,75.29
2023-12-03T05:30:28.809Z,76.29
2023-12-03T05:33:32.159Z,76.49
2023-12-03T05:36:34.989Z,76.10
2023-12-03T05:39:39.566Z,75.60
2023-12-03T05:42:43.848Z,73.79
2023-12-03T05:45:46.705Z,75.14
2023-12-03T05:48:49.617Z,75.68
2023-12-03T05:51:52.834Z,75.09
2023-12-03T05:54:55.882Z,75.71
2023-12-03T05:58:00.156Z,76.16
2023-12-03T06:01:02.901Z,76.11
2023-12-03T06:04:08.777Z,75.35
2023-12-03T06:07:11.892Z,75.79
2023-12-03T06:10:14.806Z,74.59
2023-12-03T06:13:19.071Z,75.09
2023-12-03T06:16:22.288Z,74.59
2023-12-03T06:19:25.344Z,73.30
2023-12-03T06:22:28.167Z,75.12
2023-12-03T06:25:31.048Z,74.95
2023-12-03T06:28:35.146Z,75.20
2023-12-03T06:31:38.489Z,74.73
2023-12-03T06:34:41.665Z,74.44
2023-12-03T06:37:44.452Z,74.56
2023-12-03T06:40:47.729Z,75.27
2023-12-03T06:43:51.956Z,74.58
2023-12-03T06:46:54.663Z,74.06
2023-12-03T06:49:57.541Z,75.49
2023-12-03T06:53:00.426Z,74.97
2023-12-03T06:56:03.292Z,75.46
2023-12-03T06:59:07.992Z,75.54
2023-12-03T07:02:10.865Z,75.14
2023-12-03T07:05:13.986Z,75.10
2023-12-03T07:08:16.917Z,75.04
2023-12-03T07:11:19.827Z,75.25
2023-12-03T07:14:23.919Z,75.25
2023-12-03T07:17:26.685Z,74.05
2023-12-03T07:20:29.452Z,74.61
2023-12-03T07:23:32.163Z,73.95
2023-12-03T07:26:35.056Z,73.49
2023-12-03T07:29:39.268Z,74.08
2023-12-03T07:32:42.284Z,73.87
2023-12-03T07:35:45.204Z,73.78
2023-12-03T07:38:48.106Z,72.76
2023-12-03T07:41:52.417Z,73.49
2023-12-03T07:44:56.637Z,72.72
2023-12-03T07:47:59.399Z,73.49
2023-12-03T07:51:02.298Z,72.56
2023-12-03T07:54:05.522Z,73.48
2023-12-03T07:57:08.239Z,72.73
2023-12-03T08:00:13.598Z,72.18
2023-12-03T08:03:16.469Z,72.41
2023-12-03T08:06:19.324Z,72.70
2023-12-03T08:09:22.156Z,73.72
2023-12-03T08:12:25.094Z,73.10
2023-12-03T08:15:29.366Z,72.36
2023-12-03T08:18:32.614Z,73.96
2023-12-03T08:21:37.766Z,72.57
2023-12-03T08:24:40.738Z,73.16
2023-12-03T08:27:44.063Z,73.54
2023-12-03T08:30:48.846Z,73.79
2023-12-03T08:33:51.707Z,72.89
2023-12-03T08:36:54.689Z,73.67
2023-12-03T08:39:57.555Z,72.22
2023-12-03T08:43:00.414Z,72.56
2023-12-03T08:46:05.248Z,72.33
2023-12-03T08:49:08.090Z,72.68
2023-12-03T08:52:11.834Z,72.31
2023-12-03T08:55:14.620Z,72.31
2023-12-03T08:58:17.675Z,71.79
2023-12-03T09:01:22.327Z,71.98
2023-12-03T09:04:25.281Z,72.86
2023-12-03T09:07:31.852Z,72.56
2023-12-03T09:10:34.710Z,71.53
2023-12-03T09:13:37.416Z,72.48
2023-12-03T09:16:41.791Z,71.93
2023-12-03T09:19:44.630Z,71.43
2023-12-03T09:22:47.431Z,70.75
2023-12-03T09:25:50.184Z,70.43
2023-12-03T09:28:53.058Z,71.18
2023-12-03T09:31:57.360Z,71.29
2023-12-03T09:35:00.258Z,70.69
2023-12-03T09:38:02.964Z,71.98
2023-12-03T09:41:10.890Z,71.24
2023-12-03T09:44:22.118Z,72.89
2023-12-03T09:47:28.789Z,69.69
2023-12-03T09:50:32.192Z,70.03
2023-12-03T09:53:39.623Z,70.83
2023-12-03T09:56:44.155Z,70.20
2023-12-03T09:59:48.952Z,70.25
2023-12-03T10:02:55.345Z,71.67
2023-12-03T10:05:59.296Z,69.87
2023-12-03T10:09:04.026Z,71.18
2023-12-03T10:12:09.089Z,70.23
2023-12-03T10:15:12.848Z,69.67
2023-12-03T10:18:17.814Z,69.67
2023-12-03T10:21:20.677Z,71.50
2023-12-03T10:24:23.890Z,70.42
2023-12-03T10:27:30.547Z,68.43
2023-12-03T10:30:34.233Z,69.46
2023-12-03T10:33:39.657Z,72.02
2023-12-03T10:36:43.920Z,71.23
2023-12-03T10:39:47.045Z,71.98
2023-12-03T10:42:49.900Z,70.01
2023-12-03T10:45:55.423Z,70.25
2023-12-03T10:49:00.441Z,68.94
2023-12-03T10:52:04.472Z,68.53
2023-12-03T10:55:08.945Z,69.67
2023-12-03T10:58:15.447Z,69.13
2023-12-03T11:01:22.410Z,68.00
2023-12-03T11:04:37.510Z,68.89
2023-12-03T11:07:40.610Z,69.33
2023-12-03T11:10:45.827Z,69.44
2023-12-03T11:13:50.933Z,69.87
2023-12-03T11:17:05.052Z,67.94
2023-12-03T11:20:15.246Z,70.27
2023-12-03T11:23:34.914Z,70.20
2023-12-03T11:26:38.982Z,68.91
2023-12-03T11:29:49.493Z,69.06
2023-12-03T11:32:55.396Z,69.00
2023-12-03T11:36:01.257Z,69.23
2023-12-03T11:39:04.587Z,68.51
2023-12-03T11:42:07.386Z,69.38
2023-12-03T11:45:24.971Z,69.65
2023-12-03T11:48:30.761Z,68.68
2023-12-03T11:51:35.159Z,68.68
2023-12-03T11:54:40.924Z,69.48
2023-12-03T11:57:45.157Z,68.81
2023-12-03T12:00:48.473Z,70.23
2023-12-03T12:03:51.417Z,70.96
2023-12-03T12:06:56.972Z,70.52
2023-12-03T12:09:59.825Z,69.66
2023-12-03T12:13:06.239Z,69.03
2023-12-03T12:16:11.392Z,70.09
2023-12-03T12:19:15.188Z,68.16
2023-12-03T12:22:19.934Z,69.93
2023-12-03T12:25:23.773Z,69.41
2023-12-03T12:28:27.516Z,68.19
2023-12-03T12:31:30.860Z,67.56
2023-12-03T12:34:35.499Z,68.12
2023-12-03T12:37:41.210Z,69.86
2023-12-03T12:40:54.810Z,68.50
2023-12-03T12:43:59.191Z,69.87
2023-12-03T12:47:01.979Z,69.47
2023-12-03T12:50:05.988Z,67.65
2023-12-03T12:53:10.275Z,69.69
2023-12-03T12:56:13.342Z,69.64
2023-12-03T12:59:18.246Z,69.73
2023-12-03T13:02:22.242Z,68.78
2023-12-03T13:05:26.718Z,69.47
2023-12-03T13:08:30.964Z,69.08
2023-12-03T13:11:33.709Z,69.17
2023-12-03T13:14:36.948Z,68.66
2023-12-03T13:17:47.256Z,68.21
2023-12-03T13:20:50.376Z,68.27
2023-12-03T13:23:54.589Z,69.49
2023-12-03T13:26:57.485Z,69.71
2023-12-03T13:30:00.363Z,70.77
2023-12-03T13:36:23.542Z,70.29
2023-12-03T13:39:27.756Z,70.99
2023-12-03T13:42:31.358Z,71.16
2023-12-03T13:45:35.281Z,70.54
2023-12-03T13:48:38.287Z,68.69
2023-12-03T13:51:41.119Z,69.32
2023-12-03T13:54:45.924Z,68.76
2023-12-03T13:57:48.829Z,69.49
2023-12-03T14:00:51.696Z,70.09
2023-12-03T14:03:54.596Z,69.09
2023-12-03T14:06:57.558Z,70.33
2023-12-03T14:10:01.732Z,70.26
2023-12-03T14:13:04.752Z,69.60
2023-12-03T14:16:08.272Z,69.09
2023-12-03T14:19:14.180Z,70.04
2023-12-03T14:22:18.190Z,69.68
2023-12-03T14:25:22.468Z,69.94
2023-12-03T14:28:25.944Z,71.19
2023-12-03T14:31:31.456Z,69.48
2023-12-03T14:34:34.639Z,71.12
2023-12-03T14:37:37.500Z,70.87
2023-12-03T14:40:41.594Z,70.08
2023-12-03T14:43:44.409Z,71.13
2023-12-03T14:46:47.110Z,71.58
2023-12-03T14:49:49.837Z,71.02
2023-12-03T14:52:52.762Z,69.78
2023-12-03T14:55:56.969Z,68.83
2023-12-03T14:59:01.488Z,69.63
2023-12-03T15:02:04.482Z,69.98
2023-12-03T15:05:08.536Z,70.76
2023-12-03T15:08:11.372Z,70.57
2023-12-03T15:11:16.132Z,71.04
2023-12-03T15:14:18.910Z,71.63
2023-12-03T15:17:21.638Z,71.03
2023-12-03T15:20:24.591Z,71.24
2023-12-03T15:23:27.501Z,72.49
2023-12-03T15:26:31.587Z,71.43
2023-12-03T15:29:34.503Z,71.20
2023-12-03T15:32:37.367Z,71.86
2023-12-03T15:35:40.274Z,71.51
2023-12-03T15:38:43.034Z,71.81
2023-12-03T15:41:47.121Z,71.21
2023-12-03T15:44:49.865Z,71.43
2023-12-03T15:47:53.157Z,70.81
2023-12-03T15:50:57.128Z,70.83
2023-12-03T15:54:00.395Z,70.38
2023-12-03T15:57:04.694Z,71.72
2023-12-03T16:00:09.613Z,71.18
2023-12-03T16:03:13.035Z,71.45
2023-12-03T16:06:15.816Z,71.30
2023-12-03T16:09:18.532Z,70.46
2023-12-03T16:12:23.749Z,70.68
2023-12-03T16:15:27.201Z,71.04
2023-12-03T16:18:30.127Z,71.54
2023-12-03T16:21:33.200Z,72.40
2023-12-03T16:24:36.110Z,70.96
2023-12-03T16:27:42.150Z,71.48
2023-12-03T16:30:45.147Z,70.43
2023-12-03T16:33:48.351Z,71.41
2023-12-03T16:36:51.285Z,71.28
2023-12-03T16:39:54.184Z,70.05
2023-12-03T16:42:58.423Z,72.30
2023-12-03T16:46:01.427Z,70.10
2023-12-03T16:49:04.732Z,70.65
2023-12-03T16:52:07.752Z,71.23
2023-12-03T16:55:11.067Z,72.31
2023-12-03T16:58:15.338Z,70.88
2023-12-03T17:01:18.174Z,72.00
2023-12-03T17:04:23.264Z,72.36
2023-12-03T17:07:26.250Z,71.10
2023-12-03T17:10:31.260Z,71.37
2023-12-03T17:13:35.565Z,71.47
2023-12-03T17:16:39.206Z,71.56
2023-12-03T17:19:41.975Z,70.76
2023-12-03T17:22:44.865Z,70.75
2023-12-03T17:25:48.212Z,71.59
2023-12-03T17:28:53.385Z,71.05
2023-12-03T17:31:56.123Z,71.13
2023-12-03T17:34:59.087Z,71.31
2023-12-03T17:38:02.058Z,71.65
2023-12-03T17:41:05.307Z,71.56
2023-12-03T17:44:09.996Z,70.52
2023-12-03T17:47:12.983Z,71.21
2023-12-03T17:50:15.818Z,71.47
2023-12-03T17:53:19.477Z,71.74
2023-12-03T17:56:22.416Z,72.04
2023-12-03T17:59:26.678Z,71.76
2023-12-03T18:02:29.949Z,71.33
2023-12-03T18:05:33.160Z,71.66
2023-12-03T18:08:36.179Z,71.13
2023-12-03T18:11:43.039Z,72.09
2023-12-03T18:14:50.070Z,70.97
2023-12-03T18:17:54.367Z,71.14
2023-12-03T18:20:58.646Z,71.92
2023-12-03T18:24:01.579Z,71.90
2023-12-03T18:27:04.599Z,71.23
2023-12-03T18:30:10.405Z,72.07
2023-12-03T18:33:15.870Z,71.14
2023-12-03T18:36:20.478Z,71.92
2023-12-03T18:39:23.737Z,72.12
2023-12-03T18:42:27.883Z,71.88
2023-12-03T18:45:32.016Z,72.48
2023-12-03T18:48:35.178Z,72.09
2023-12-03T18:51:37.991Z,72.07
2023-12-03T18:54:43.361Z,72.07
2023-12-03T18:57:46.961Z,72.08
2023-12-03T19:00:52.008Z,72.13
2023-12-03T19:03:54.750Z,72.24
2023-12-03T19:06:57.839Z,71.67
2023-12-03T19:10:00.965Z,71.48
2023-12-03T19:13:10.906Z,71.48
2023-12-03T19:16:21.184Z,71.37
2023-12-03T19:19:24.114Z,71.30
2023-12-03T19:22:28.128Z,71.45
2023-12-03T19:25:32.529Z,72.07
2023-12-03T19:28:35.374Z,72.15
2023-12-03T19:31:43.217Z,71.79
2023-12-03T19:34:46.013Z,71.92
2023-12-03T19:37:48.790Z,71.49
2023-12-03T19:40:51.508Z,71.05
2023-12-03T19:43:54.257Z,71.70
2023-12-03T19:46:58.479Z,71.82
2023-12-03T19:50:01.196Z,72.29
2023-12-03T19:53:05.040Z,72.25
2023-12-03T19:56:08.478Z,71.55
2023-12-03T19:59:11.163Z,71.21
2023-12-03T20:02:15.384Z,70.66
2023-12-03T20:05:18.437Z,71.77
2023-12-03T20:08:22.960Z,72.11
2023-12-03T20:11:25.713Z,72.47
2023-12-03T20:14:28.600Z,72.12
2023-12-03T20:17:33.298Z,72.16
2023-12-03T20:20:36.706Z,71.88
2023-12-03T20:23:39.440Z,71.97
2023-12-03T20:26:42.623Z,72.20
2023-12-03T20:29:45.598Z,72.33
2023-12-03T20:32:51.492Z,72.17
2023-12-03T20:35:54.710Z,72.23
2023-12-03T20:38:57.556Z,71.74
2023-12-03T20:42:01.267Z,71.88
2023-12-03T20:45:04.596Z,72.00
2023-12-03T20:48:09.054Z,71.83
2023-12-03T20:51:12.832Z,71.70
2023-12-03T20:54:15.717Z,71.86
2023-12-03T20:57:18.501Z,72.18
2023-12-03T21:00:21.586Z,72.52
2023-12-03T21:03:25.951Z,72.08
2023-12-03T21:06:28.896Z,72.92
2023-12-03T21:09:31.919Z,71.86
2023-12-03T21:12:35.051Z,72.41
2023-12-03T21:15:38.070Z,72.38
2023-12-03T21:18:45.468Z,72.83
2023-12-03T21:21:48.308Z,72.13
2023-12-03T21:24:51.195Z,72.13
2023-12-03T21:27:54.585Z,71.39
2023-12-03T21:30:57.661Z,72.88
2023-12-03T21:34:01.853Z,73.19
2023-12-03T21:37:07.107Z,73.30
2023-12-03T21:40:11.053Z,72.18
2023-12-03T21:43:14.054Z,72.36
2023-12-03T21:46:17.157Z,72.82
2023-12-03T21:49:21.442Z,73.05
2023-12-03T21:52:25.566Z,72.51
2023-12-03T21:55:29.062Z,73.10
2023-12-03T21:58:33.418Z,72.77
2023-12-03T22:01:37.575Z,72.62
2023-12-03T22:04:41.709Z,72.29
2023-12-03T22:07:44.622Z,72.95
2023-12-03T22:10:48.523Z,72.84
2023-12-03T22:13:51.357Z,72.48
2023-12-03T22:16:54.054Z,72.89
2023-12-03T22:19:58.444Z,71.07
2023-12-03T22:23:01.198Z,72.82
2023-12-03T22:26:04.029Z,72.63
2023-12-03T22:29:06.792Z,71.15
2023-12-03T22:32:09.764Z,72.24
2023-12-03T22:35:14.216Z,71.81
2023-12-03T22:38:16.949Z,71.20
2023-12-03T22:41:21.601Z,72.21
2023-12-03T22:44:24.762Z,71.86
2023-12-03T22:47:29.074Z,72.70
2023-12-03T22:50:33.869Z,72.77
2023-12-03T22:53:37.201Z,72.10
2023-12-03T22:56:40.038Z,72.29
2023-12-03T22:59:44.392Z,72.45
2023-12-03T23:02:47.090Z,72.01
2023-12-03T23:05:51.311Z,72.76
2023-12-03T23:08:54.037Z,72.19
2023-12-03T23:11:56.859Z,72.05
2023-12-03T23:14:59.625Z,71.94
2023-12-03T23:18:02.745Z,71.32
2023-12-03T23:21:07.487Z,72.30
2023-12-03T23:27:30.468Z,70.65
2023-12-03T23:30:33.509Z,70.87
2023-12-03T23:33:36.565Z,70.93
2023-12-03T23:36:42.468Z,72.01
2023-12-03T23:39:45.281Z,72.18
2023-12-03T23:42:48.149Z,71.29
2023-12-03T23:45:51.044Z,71.30
2023-12-03T23:48:53.866Z,71.11
2023-12-03T23:51:58.180Z,71.01
2023-12-03T23:55:01.148Z,71.42
2023-12-03T23:58:04.205Z,71.61
